メインページ
METAR-TAF:

METAR-TAF

空港 :

トゥホ, ニューカレドニア

緯度: 20-47-25S, 経度: 165-15-34E, 海抜: 3m

METAR: 見つかりません

時間: 00:38 (13:38 UTC)

予報

当レポートは20時間38分前の17:00(UTC)に作成
予報は09日の 18時(UTC)から 10日の 18時(UTC)まで有効
東/南東の風 14kt
視程10km以上
高度3500ftの雲はほとんどない
高度5500ftの千切れ雲あり
確率 30% :
10日の 00時(UTC)から 10日の 06時(UTC)まで一時的に
にわか雨

TAF: NWWU 091700Z 0918/1018 12014KT 9999 FEW035 BKN055 PROB30 TEMPO 1000/1006 SHRA

4,000以上の空港の気象観測と天気予報(METAR報とTAF報)

利用可能な観測所は地図上に黄色い丸と赤い丸で示す。

丸の上にカーソルを重ねると観測所名を参照できる。

次にクリックすると気象観測と天気予報を参照できる。

マップの切り替え:黒色「×」印の緑ボタンをクリックして拡大、「-」印の緑ボタンをクリックして縮小、緑色の三角印をクリックして隣りの地図に切り替え


METAR-TAF: